sensor_id;sensor_type;location;lat;lon;timestamp;P1;durP1;ratioP1;P2;durP2;ratioP2
49378;SDS011;35254;47.990;-1.608;2022-12-18T00:01:01;9.02;;;4.88;;
49378;SDS011;35254;47.990;-1.608;2022-12-18T00:03:42;5.13;;;4.30;;
49378;SDS011;35254;47.990;-1.608;2022-12-18T00:06:08;5.68;;;4.70;;
49378;SDS011;35254;47.990;-1.608;2022-12-18T00:08:34;7.15;;;4.22;;
49378;SDS011;35254;47.990;-1.608;2022-12-18T00:11:06;5.85;;;4.15;;
49378;SDS011;35254;47.990;-1.608;2022-12-18T00:13:33;7.20;;;5.38;;
49378;SDS011;35254;47.990;-1.608;2022-12-18T00:16:04;5.93;;;4.63;;
49378;SDS011;35254;47.990;-1.608;2022-12-18T00:18:31;5.22;;;4.03;;
49378;SDS011;35254;47.990;-1.608;2022-12-18T00:21:01;5.00;;;4.13;;
49378;SDS011;35254;47.990;-1.608;2022-12-18T00:23:29;6.25;;;4.05;;
49378;SDS011;35254;47.990;-1.608;2022-12-18T00:25:58;6.38;;;4.53;;
49378;SDS011;35254;47.990;-1.608;2022-12-18T00:28:25;5.50;;;4.15;;
49378;SDS011;35254;47.990;-1.608;2022-12-18T00:30:51;5.50;;;4.70;;
49378;SDS011;35254;47.990;-1.608;2022-12-18T00:33:23;7.97;;;4.50;;
49378;SDS011;35254;47.990;-1.608;2022-12-18T00:35:49;6.10;;;4.72;;
49378;SDS011;35254;47.990;-1.608;2022-12-18T00:38:15;5.18;;;4.18;;
49378;SDS011;35254;47.990;-1.608;2022-12-18T00:40:40;6.20;;;4.22;;
49378;SDS011;35254;47.990;-1.608;2022-12-18T00:43:09;6.18;;;4.38;;
49378;SDS011;35254;47.990;-1.608;2022-12-18T00:45:35;5.13;;;4.57;;
49378;SDS011;35254;47.990;-1.608;2022-12-18T00:48:00;5.43;;;4.28;;
49378;SDS011;35254;47.990;-1.608;2022-12-18T00:50:26;4.93;;;4.45;;
49378;SDS011;35254;47.990;-1.608;2022-12-18T00:52:52;4.95;;;3.88;;
49378;SDS011;35254;47.990;-1.608;2022-12-18T00:55:17;5.90;;;4.22;;
49378;SDS011;35254;47.990;-1.608;2022-12-18T00:57:43;5.65;;;4.28;;
49378;SDS011;35254;47.990;-1.608;2022-12-18T01:00:13;4.95;;;4.32;;
49378;SDS011;35254;47.990;-1.608;2022-12-18T01:02:40;7.15;;;4.35;;
49378;SDS011;35254;47.990;-1.608;2022-12-18T01:05:05;5.05;;;4.40;;
49378;SDS011;35254;47.990;-1.608;2022-12-18T01:07:32;5.35;;;4.85;;
49378;SDS011;35254;47.990;-1.608;2022-12-18T01:09:57;6.78;;;5.18;;
49378;SDS011;35254;47.990;-1.608;2022-12-18T01:12:23;5.50;;;4.00;;
49378;SDS011;35254;47.990;-1.608;2022-12-18T01:14:49;5.40;;;4.50;;
49378;SDS011;35254;47.990;-1.608;2022-12-18T01:17:14;5.80;;;4.97;;
49378;SDS011;35254;47.990;-1.608;2022-12-18T01:19:40;6.00;;;5.00;;
49378;SDS011;35254;47.990;-1.608;2022-12-18T01:22:06;5.43;;;4.38;;
49378;SDS011;35254;47.990;-1.608;2022-12-18T01:24:32;6.18;;;4.47;;
49378;SDS011;35254;47.990;-1.608;2022-12-18T01:26:58;4.78;;;4.28;;
49378;SDS011;35254;47.990;-1.608;2022-12-18T01:29:23;6.35;;;4.53;;
49378;SDS011;35254;47.990;-1.608;2022-12-18T01:31:49;4.68;;;4.13;;
49378;SDS011;35254;47.990;-1.608;2022-12-18T01:34:15;5.25;;;4.60;;
49378;SDS011;35254;47.990;-1.608;2022-12-18T01:36:41;6.13;;;4.57;;
49378;SDS011;35254;47.990;-1.608;2022-12-18T01:39:08;5.10;;;4.28;;
49378;SDS011;35254;47.990;-1.608;2022-12-18T01:41:37;10.95;;;5.03;;
49378;SDS011;35254;47.990;-1.608;2022-12-18T01:49:57;6.43;;;5.78;;
49378;SDS011;35254;47.990;-1.608;2022-12-18T01:52:26;5.82;;;4.70;;
49378;SDS011;35254;47.990;-1.608;2022-12-18T01:54:55;5.47;;;4.07;;
49378;SDS011;35254;47.990;-1.608;2022-12-18T01:57:22;4.72;;;4.15;;
49378;SDS011;35254;47.990;-1.608;2022-12-18T01:59:50;6.68;;;4.72;;
49378;SDS011;35254;47.990;-1.608;2022-12-18T02:02:19;7.43;;;4.68;;
49378;SDS011;35254;47.990;-1.608;2022-12-18T02:04:45;4.53;;;4.07;;
49378;SDS011;35254;47.990;-1.608;2022-12-18T02:16:03;7.38;;;4.50;;
49378;SDS011;35254;47.990;-1.608;2022-12-18T02:18:41;6.75;;;4.80;;
49378;SDS011;35254;47.990;-1.608;2022-12-18T02:26:49;6.40;;;5.78;;
49378;SDS011;35254;47.990;-1.608;2022-12-18T02:29:22;4.85;;;4.35;;
49378;SDS011;35254;47.990;-1.608;2022-12-18T02:31:54;4.88;;;4.40;;
49378;SDS011;35254;47.990;-1.608;2022-12-18T02:34:26;5.68;;;4.70;;
49378;SDS011;35254;47.990;-1.608;2022-12-18T02:36:54;5.53;;;4.47;;
49378;SDS011;35254;47.990;-1.608;2022-12-18T02:39:22;5.43;;;4.30;;
49378;SDS011;35254;47.990;-1.608;2022-12-18T02:41:50;5.10;;;4.38;;
49378;SDS011;35254;47.990;-1.608;2022-12-18T02:44:16;5.53;;;4.65;;
49378;SDS011;35254;47.990;-1.608;2022-12-18T02:46:51;9.90;;;4.75;;
49378;SDS011;35254;47.990;-1.608;2022-12-18T02:49:32;5.57;;;4.88;;
49378;SDS011;35254;47.990;-1.608;2022-12-18T02:57:13;5.65;;;4.28;;
49378;SDS011;35254;47.990;-1.608;2022-12-18T02:59:50;4.78;;;4.03;;
49378;SDS011;35254;47.990;-1.608;2022-12-18T03:02:21;6.45;;;4.32;;
49378;SDS011;35254;47.990;-1.608;2022-12-18T03:07:34;6.30;;;4.82;;
49378;SDS011;35254;47.990;-1.608;2022-12-18T03:10:03;5.18;;;4.68;;
49378;SDS011;35254;47.990;-1.608;2022-12-18T03:12:32;6.22;;;4.72;;
49378;SDS011;35254;47.990;-1.608;2022-12-18T03:15:09;4.55;;;4.10;;
49378;SDS011;35254;47.990;-1.608;2022-12-18T03:17:46;5.28;;;4.05;;
49378;SDS011;35254;47.990;-1.608;2022-12-18T03:20:18;5.43;;;4.65;;
49378;SDS011;35254;47.990;-1.608;2022-12-18T03:22:47;5.07;;;4.57;;
49378;SDS011;35254;47.990;-1.608;2022-12-18T03:25:18;7.38;;;4.95;;
49378;SDS011;35254;47.990;-1.608;2022-12-18T03:27:46;7.10;;;4.30;;
49378;SDS011;35254;47.990;-1.608;2022-12-18T03:30:14;8.00;;;4.95;;
49378;SDS011;35254;47.990;-1.608;2022-12-18T03:32:42;33.60;;;5.50;;
49378;SDS011;35254;47.990;-1.608;2022-12-18T03:35:25;19.85;;;4.78;;
49378;SDS011;35254;47.990;-1.608;2022-12-18T03:37:57;36.58;;;5.07;;
49378;SDS011;35254;47.990;-1.608;2022-12-18T03:40:25;20.15;;;5.53;;
49378;SDS011;35254;47.990;-1.608;2022-12-18T03:42:58;20.25;;;5.15;;
49378;SDS011;35254;47.990;-1.608;2022-12-18T03:45:38;14.23;;;5.22;;
49378;SDS011;35254;47.990;-1.608;2022-12-18T03:48:11;15.57;;;4.90;;
49378;SDS011;35254;47.990;-1.608;2022-12-18T03:53:39;12.48;;;6.15;;
49378;SDS011;35254;47.990;-1.608;2022-12-18T03:56:25;8.65;;;6.60;;
49378;SDS011;35254;47.990;-1.608;2022-12-18T03:58:56;9.90;;;7.30;;
49378;SDS011;35254;47.990;-1.608;2022-12-18T04:01:26;7.90;;;6.85;;
49378;SDS011;35254;47.990;-1.608;2022-12-18T04:03:56;11.10;;;7.30;;
49378;SDS011;35254;47.990;-1.608;2022-12-18T04:06:25;8.38;;;7.00;;
49378;SDS011;35254;47.990;-1.608;2022-12-18T04:08:52;11.20;;;7.70;;
49378;SDS011;35254;47.990;-1.608;2022-12-18T04:11:18;8.70;;;7.22;;
49378;SDS011;35254;47.990;-1.608;2022-12-18T04:13:43;8.30;;;7.18;;
49378;SDS011;35254;47.990;-1.608;2022-12-18T04:16:09;9.88;;;7.22;;
49378;SDS011;35254;47.990;-1.608;2022-12-18T04:18:35;9.02;;;7.00;;
49378;SDS011;35254;47.990;-1.608;2022-12-18T04:21:02;9.05;;;7.15;;
49378;SDS011;35254;47.990;-1.608;2022-12-18T04:23:28;8.05;;;7.05;;
49378;SDS011;35254;47.990;-1.608;2022-12-18T04:25:54;11.38;;;7.13;;
49378;SDS011;35254;47.990;-1.608;2022-12-18T04:28:19;9.73;;;7.60;;
49378;SDS011;35254;47.990;-1.608;2022-12-18T04:30:45;12.48;;;7.28;;
49378;SDS011;35254;47.990;-1.608;2022-12-18T04:33:11;10.00;;;7.60;;
49378;SDS011;35254;47.990;-1.608;2022-12-18T04:35:38;9.85;;;7.15;;
49378;SDS011;35254;47.990;-1.608;2022-12-18T04:38:05;10.77;;;8.38;;
49378;SDS011;35254;47.990;-1.608;2022-12-18T04:40:33;9.75;;;7.47;;
49378;SDS011;35254;47.990;-1.608;2022-12-18T04:43:00;9.68;;;7.10;;
49378;SDS011;35254;47.990;-1.608;2022-12-18T04:45:26;10.63;;;7.95;;
49378;SDS011;35254;47.990;-1.608;2022-12-18T04:47:52;9.32;;;8.10;;
49378;SDS011;35254;47.990;-1.608;2022-12-18T04:50:18;11.57;;;8.23;;
49378;SDS011;35254;47.990;-1.608;2022-12-18T04:52:43;9.60;;;7.90;;
49378;SDS011;35254;47.990;-1.608;2022-12-18T04:55:09;11.40;;;7.40;;
49378;SDS011;35254;47.990;-1.608;2022-12-18T04:57:34;8.30;;;6.53;;
49378;SDS011;35254;47.990;-1.608;2022-12-18T05:00:00;8.13;;;6.80;;
49378;SDS011;35254;47.990;-1.608;2022-12-18T05:02:26;9.82;;;7.88;;
49378;SDS011;35254;47.990;-1.608;2022-12-18T05:04:51;9.30;;;6.80;;
49378;SDS011;35254;47.990;-1.608;2022-12-18T05:07:17;8.18;;;7.25;;
49378;SDS011;35254;47.990;-1.608;2022-12-18T05:09:43;8.82;;;7.43;;
49378;SDS011;35254;47.990;-1.608;2022-12-18T05:12:08;9.63;;;6.65;;
49378;SDS011;35254;47.990;-1.608;2022-12-18T05:14:34;8.88;;;6.70;;
49378;SDS011;35254;47.990;-1.608;2022-12-18T05:17:00;8.98;;;6.97;;
49378;SDS011;35254;47.990;-1.608;2022-12-18T05:19:25;10.10;;;6.75;;
49378;SDS011;35254;47.990;-1.608;2022-12-18T05:21:51;10.13;;;7.40;;
49378;SDS011;35254;47.990;-1.608;2022-12-18T05:24:16;6.60;;;5.90;;
49378;SDS011;35254;47.990;-1.608;2022-12-18T05:26:42;9.30;;;6.63;;
49378;SDS011;35254;47.990;-1.608;2022-12-18T05:29:08;9.98;;;7.22;;
49378;SDS011;35254;47.990;-1.608;2022-12-18T05:31:37;7.72;;;6.22;;
49378;SDS011;35254;47.990;-1.608;2022-12-18T05:34:03;8.30;;;7.00;;
49378;SDS011;35254;47.990;-1.608;2022-12-18T05:36:28;9.88;;;7.40;;
49378;SDS011;35254;47.990;-1.608;2022-12-18T05:38:54;8.90;;;6.55;;
49378;SDS011;35254;47.990;-1.608;2022-12-18T05:41:20;7.43;;;6.03;;
49378;SDS011;35254;47.990;-1.608;2022-12-18T05:43:45;9.02;;;6.38;;
49378;SDS011;35254;47.990;-1.608;2022-12-18T05:46:12;10.48;;;6.18;;
49378;SDS011;35254;47.990;-1.608;2022-12-18T05:48:39;8.30;;;6.80;;
49378;SDS011;35254;47.990;-1.608;2022-12-18T05:51:07;9.35;;;7.47;;
49378;SDS011;35254;47.990;-1.608;2022-12-18T05:53:34;11.50;;;8.80;;
49378;SDS011;35254;47.990;-1.608;2022-12-18T05:56:02;6.65;;;5.90;;
49378;SDS011;35254;47.990;-1.608;2022-12-18T05:58:29;9.10;;;6.93;;
49378;SDS011;35254;47.990;-1.608;2022-12-18T06:00:55;9.23;;;8.05;;
49378;SDS011;35254;47.990;-1.608;2022-12-18T06:03:21;9.68;;;7.95;;
49378;SDS011;35254;47.990;-1.608;2022-12-18T06:05:47;11.48;;;7.78;;
49378;SDS011;35254;47.990;-1.608;2022-12-18T06:08:13;9.88;;;7.85;;
49378;SDS011;35254;47.990;-1.608;2022-12-18T06:10:39;8.68;;;6.95;;
49378;SDS011;35254;47.990;-1.608;2022-12-18T06:13:05;8.43;;;6.72;;
49378;SDS011;35254;47.990;-1.608;2022-12-18T06:15:32;9.25;;;7.80;;
49378;SDS011;35254;47.990;-1.608;2022-12-18T06:17:57;9.18;;;7.60;;
49378;SDS011;35254;47.990;-1.608;2022-12-18T06:20:25;12.27;;;7.72;;
49378;SDS011;35254;47.990;-1.608;2022-12-18T06:22:50;8.55;;;6.43;;
49378;SDS011;35254;47.990;-1.608;2022-12-18T06:25:16;7.95;;;6.72;;
49378;SDS011;35254;47.990;-1.608;2022-12-18T06:27:42;9.45;;;6.78;;
49378;SDS011;35254;47.990;-1.608;2022-12-18T06:30:08;8.10;;;6.70;;
49378;SDS011;35254;47.990;-1.608;2022-12-18T06:32:34;7.47;;;6.03;;
49378;SDS011;35254;47.990;-1.608;2022-12-18T06:34:59;6.35;;;5.65;;
49378;SDS011;35254;47.990;-1.608;2022-12-18T06:37:25;7.43;;;6.35;;
49378;SDS011;35254;47.990;-1.608;2022-12-18T06:39:51;8.18;;;6.10;;
49378;SDS011;35254;47.990;-1.608;2022-12-18T06:42:18;6.93;;;6.00;;
49378;SDS011;35254;47.990;-1.608;2022-12-18T06:44:43;6.50;;;5.70;;
49378;SDS011;35254;47.990;-1.608;2022-12-18T06:47:09;7.90;;;6.28;;
49378;SDS011;35254;47.990;-1.608;2022-12-18T06:49:35;6.68;;;5.43;;
49378;SDS011;35254;47.990;-1.608;2022-12-18T06:52:01;6.20;;;5.57;;
49378;SDS011;35254;47.990;-1.608;2022-12-18T06:54:26;6.82;;;6.13;;
49378;SDS011;35254;47.990;-1.608;2022-12-18T06:56:52;8.13;;;6.95;;
49378;SDS011;35254;47.990;-1.608;2022-12-18T06:59:18;7.07;;;5.53;;
49378;SDS011;35254;47.990;-1.608;2022-12-18T07:01:43;8.23;;;6.63;;
49378;SDS011;35254;47.990;-1.608;2022-12-18T07:04:09;6.13;;;5.10;;
49378;SDS011;35254;47.990;-1.608;2022-12-18T07:06:35;11.75;;;6.75;;
49378;SDS011;35254;47.990;-1.608;2022-12-18T07:09:00;8.73;;;5.78;;
49378;SDS011;35254;47.990;-1.608;2022-12-18T07:11:26;8.55;;;6.43;;
49378;SDS011;35254;47.990;-1.608;2022-12-18T07:13:52;6.55;;;5.75;;
49378;SDS011;35254;47.990;-1.608;2022-12-18T07:16:18;7.55;;;5.63;;
49378;SDS011;35254;47.990;-1.608;2022-12-18T07:18:45;7.82;;;5.35;;
49378;SDS011;35254;47.990;-1.608;2022-12-18T07:21:12;9.35;;;6.05;;
49378;SDS011;35254;47.990;-1.608;2022-12-18T07:23:39;11.70;;;5.55;;
49378;SDS011;35254;47.990;-1.608;2022-12-18T07:26:09;8.63;;;6.00;;
49378;SDS011;35254;47.990;-1.608;2022-12-18T07:28:37;8.50;;;5.45;;
49378;SDS011;35254;47.990;-1.608;2022-12-18T07:31:05;10.30;;;5.28;;
49378;SDS011;35254;47.990;-1.608;2022-12-18T07:33:32;6.30;;;5.50;;
49378;SDS011;35254;47.990;-1.608;2022-12-18T07:35:59;7.47;;;5.38;;
49378;SDS011;35254;47.990;-1.608;2022-12-18T07:38:25;5.95;;;5.10;;
49378;SDS011;35254;47.990;-1.608;2022-12-18T07:40:50;6.30;;;4.68;;
49378;SDS011;35254;47.990;-1.608;2022-12-18T07:43:16;7.25;;;5.20;;
49378;SDS011;35254;47.990;-1.608;2022-12-18T07:45:42;7.63;;;4.68;;
49378;SDS011;35254;47.990;-1.608;2022-12-18T07:48:08;6.07;;;5.32;;
49378;SDS011;35254;47.990;-1.608;2022-12-18T07:50:34;5.32;;;4.45;;
49378;SDS011;35254;47.990;-1.608;2022-12-18T07:53:00;6.55;;;5.03;;
49378;SDS011;35254;47.990;-1.608;2022-12-18T07:55:28;8.00;;;4.78;;
49378;SDS011;35254;47.990;-1.608;2022-12-18T07:57:55;9.18;;;4.82;;
49378;SDS011;35254;47.990;-1.608;2022-12-18T08:00:20;5.30;;;4.63;;
49378;SDS011;35254;47.990;-1.608;2022-12-18T08:02:46;6.38;;;4.55;;
49378;SDS011;35254;47.990;-1.608;2022-12-18T08:05:12;5.97;;;4.30;;
49378;SDS011;35254;47.990;-1.608;2022-12-18T08:07:38;4.40;;;4.00;;
49378;SDS011;35254;47.990;-1.608;2022-12-18T08:10:04;7.18;;;4.10;;
49378;SDS011;35254;47.990;-1.608;2022-12-18T08:12:30;4.75;;;4.00;;
49378;SDS011;35254;47.990;-1.608;2022-12-18T08:14:56;5.38;;;4.32;;
49378;SDS011;35254;47.990;-1.608;2022-12-18T08:17:22;4.95;;;3.75;;
49378;SDS011;35254;47.990;-1.608;2022-12-18T08:19:48;5.53;;;4.95;;
49378;SDS011;35254;47.990;-1.608;2022-12-18T08:22:13;6.22;;;4.05;;
49378;SDS011;35254;47.990;-1.608;2022-12-18T08:24:39;5.03;;;3.97;;
49378;SDS011;35254;47.990;-1.608;2022-12-18T08:27:04;5.68;;;4.32;;
49378;SDS011;35254;47.990;-1.608;2022-12-18T08:29:30;4.97;;;4.20;;
49378;SDS011;35254;47.990;-1.608;2022-12-18T08:31:56;7.05;;;4.30;;
49378;SDS011;35254;47.990;-1.608;2022-12-18T08:34:22;6.57;;;3.80;;
49378;SDS011;35254;47.990;-1.608;2022-12-18T08:36:48;4.57;;;3.88;;
49378;SDS011;35254;47.990;-1.608;2022-12-18T08:39:13;6.03;;;3.47;;
49378;SDS011;35254;47.990;-1.608;2022-12-18T08:41:39;6.25;;;4.45;;
49378;SDS011;35254;47.990;-1.608;2022-12-18T08:44:06;6.43;;;3.38;;
49378;SDS011;35254;47.990;-1.608;2022-12-18T08:47:05;6.13;;;4.03;;
49378;SDS011;35254;47.990;-1.608;2022-12-18T08:49:32;4.78;;;4.00;;
49378;SDS011;35254;47.990;-1.608;2022-12-18T08:51:58;11.38;;;5.70;;
49378;SDS011;35254;47.990;-1.608;2022-12-18T08:54:24;6.07;;;4.35;;
49378;SDS011;35254;47.990;-1.608;2022-12-18T08:56:50;6.50;;;3.88;;
49378;SDS011;35254;47.990;-1.608;2022-12-18T08:59:16;5.25;;;4.35;;
49378;SDS011;35254;47.990;-1.608;2022-12-18T09:01:43;7.57;;;4.00;;
49378;SDS011;35254;47.990;-1.608;2022-12-18T09:04:09;6.22;;;4.53;;
49378;SDS011;35254;47.990;-1.608;2022-12-18T09:06:35;4.63;;;3.72;;
49378;SDS011;35254;47.990;-1.608;2022-12-18T09:09:01;7.82;;;3.60;;
49378;SDS011;35254;47.990;-1.608;2022-12-18T09:11:28;9.82;;;3.55;;
49378;SDS011;35254;47.990;-1.608;2022-12-18T09:13:56;6.82;;;4.40;;
49378;SDS011;35254;47.990;-1.608;2022-12-18T09:16:23;6.88;;;3.80;;
49378;SDS011;35254;47.990;-1.608;2022-12-18T09:18:50;4.57;;;3.88;;
49378;SDS011;35254;47.990;-1.608;2022-12-18T09:21:18;8.10;;;4.35;;
49378;SDS011;35254;47.990;-1.608;2022-12-18T09:23:48;8.60;;;4.03;;
49378;SDS011;35254;47.990;-1.608;2022-12-18T09:28:42;5.53;;;3.80;;
49378;SDS011;35254;47.990;-1.608;2022-12-18T09:31:08;8.05;;;3.78;;
49378;SDS011;35254;47.990;-1.608;2022-12-18T09:33:36;9.95;;;4.25;;
49378;SDS011;35254;47.990;-1.608;2022-12-18T09:36:03;8.63;;;3.90;;
49378;SDS011;35254;47.990;-1.608;2022-12-18T09:38:29;15.93;;;7.28;;
49378;SDS011;35254;47.990;-1.608;2022-12-18T09:40:57;6.63;;;4.40;;
49378;SDS011;35254;47.990;-1.608;2022-12-18T09:43:48;14.90;;;4.85;;
49378;SDS011;35254;47.990;-1.608;2022-12-18T09:46:19;10.23;;;4.35;;
49378;SDS011;35254;47.990;-1.608;2022-12-18T09:48:52;14.52;;;4.50;;
49378;SDS011;35254;47.990;-1.608;2022-12-18T09:51:21;10.35;;;3.80;;
49378;SDS011;35254;47.990;-1.608;2022-12-18T09:53:52;10.35;;;4.43;;
49378;SDS011;35254;47.990;-1.608;2022-12-18T09:56:29;8.25;;;3.95;;
49378;SDS011;35254;47.990;-1.608;2022-12-18T09:59:01;12.80;;;4.68;;
49378;SDS011;35254;47.990;-1.608;2022-12-18T10:01:28;9.10;;;4.22;;
49378;SDS011;35254;47.990;-1.608;2022-12-18T10:03:55;7.32;;;5.10;;
49378;SDS011;35254;47.990;-1.608;2022-12-18T10:06:32;7.72;;;3.70;;
49378;SDS011;35254;47.990;-1.608;2022-12-18T10:15:01;10.25;;;4.82;;
49378;SDS011;35254;47.990;-1.608;2022-12-18T10:20:13;9.65;;;4.18;;
49378;SDS011;35254;47.990;-1.608;2022-12-18T10:25:40;10.38;;;4.70;;
49378;SDS011;35254;47.990;-1.608;2022-12-18T10:28:20;11.55;;;5.05;;
49378;SDS011;35254;47.990;-1.608;2022-12-18T10:30:48;15.52;;;5.68;;
49378;SDS011;35254;47.990;-1.608;2022-12-18T10:33:14;13.80;;;5.55;;
49378;SDS011;35254;47.990;-1.608;2022-12-18T10:35:42;14.57;;;5.97;;
49378;SDS011;35254;47.990;-1.608;2022-12-18T10:40:57;8.20;;;6.28;;
49378;SDS011;35254;47.990;-1.608;2022-12-18T10:43:42;10.32;;;6.45;;
49378;SDS011;35254;47.990;-1.608;2022-12-18T10:48:34;14.98;;;6.97;;
49378;SDS011;35254;47.990;-1.608;2022-12-18T10:51:05;15.40;;;6.68;;
49378;SDS011;35254;47.990;-1.608;2022-12-18T10:53:33;11.00;;;6.00;;
49378;SDS011;35254;47.990;-1.608;2022-12-18T10:56:02;9.63;;;6.30;;
49378;SDS011;35254;47.990;-1.608;2022-12-18T10:58:33;8.93;;;6.18;;
49378;SDS011;35254;47.990;-1.608;2022-12-18T11:03:32;7.75;;;5.90;;
49378;SDS011;35254;47.990;-1.608;2022-12-18T11:08:36;11.52;;;6.60;;
49378;SDS011;35254;47.990;-1.608;2022-12-18T11:11:03;9.05;;;6.00;;
49378;SDS011;35254;47.990;-1.608;2022-12-18T11:13:32;12.52;;;7.75;;
49378;SDS011;35254;47.990;-1.608;2022-12-18T11:15:58;10.02;;;6.15;;
49378;SDS011;35254;47.990;-1.608;2022-12-18T11:18:26;8.52;;;5.82;;
49378;SDS011;35254;47.990;-1.608;2022-12-18T11:21:09;8.48;;;5.57;;
49378;SDS011;35254;47.990;-1.608;2022-12-18T11:23:42;9.32;;;6.13;;
49378;SDS011;35254;47.990;-1.608;2022-12-18T11:26:14;9.25;;;5.30;;
49378;SDS011;35254;47.990;-1.608;2022-12-18T11:28:41;8.77;;;5.30;;
49378;SDS011;35254;47.990;-1.608;2022-12-18T11:31:28;8.55;;;5.20;;
49378;SDS011;35254;47.990;-1.608;2022-12-18T11:34:11;6.93;;;5.50;;
49378;SDS011;35254;47.990;-1.608;2022-12-18T11:42:14;8.40;;;5.45;;
49378;SDS011;35254;47.990;-1.608;2022-12-18T11:44:59;9.32;;;5.78;;
49378;SDS011;35254;47.990;-1.608;2022-12-18T11:47:38;5.72;;;4.85;;
49378;SDS011;35254;47.990;-1.608;2022-12-18T11:50:14;8.63;;;5.45;;
49378;SDS011;35254;47.990;-1.608;2022-12-18T11:52:43;7.38;;;4.95;;
49378;SDS011;35254;47.990;-1.608;2022-12-18T12:09:11;8.05;;;5.13;;
49378;SDS011;35254;47.990;-1.608;2022-12-18T12:14:45;5.53;;;4.10;;
49378;SDS011;35254;47.990;-1.608;2022-12-18T12:17:36;7.55;;;4.90;;
49378;SDS011;35254;47.990;-1.608;2022-12-18T12:20:20;5.88;;;4.65;;
49378;SDS011;35254;47.990;-1.608;2022-12-18T12:25:48;5.45;;;4.70;;
49378;SDS011;35254;47.990;-1.608;2022-12-18T12:28:30;5.90;;;4.40;;
49378;SDS011;35254;47.990;-1.608;2022-12-18T12:31:25;4.68;;;4.20;;
49378;SDS011;35254;47.990;-1.608;2022-12-18T12:39:11;6.22;;;4.40;;
49378;SDS011;35254;47.990;-1.608;2022-12-18T12:41:41;6.18;;;4.38;;
49378;SDS011;35254;47.990;-1.608;2022-12-18T12:44:40;5.32;;;4.00;;
49378;SDS011;35254;47.990;-1.608;2022-12-18T12:47:45;6.43;;;4.03;;
49378;SDS011;35254;47.990;-1.608;2022-12-18T12:50:11;6.10;;;3.90;;
49378;SDS011;35254;47.990;-1.608;2022-12-18T12:52:45;6.78;;;5.10;;
49378;SDS011;35254;47.990;-1.608;2022-12-18T12:55:20;7.20;;;4.28;;
49378;SDS011;35254;47.990;-1.608;2022-12-18T13:06:12;6.10;;;4.18;;
49378;SDS011;35254;47.990;-1.608;2022-12-18T13:08:58;5.07;;;4.50;;
49378;SDS011;35254;47.990;-1.608;2022-12-18T13:11:35;8.93;;;4.53;;
49378;SDS011;35254;47.990;-1.608;2022-12-18T13:19:48;6.30;;;4.10;;
49378;SDS011;35254;47.990;-1.608;2022-12-18T13:22:31;4.50;;;3.97;;
49378;SDS011;35254;47.990;-1.608;2022-12-18T13:28:13;4.90;;;4.38;;
49378;SDS011;35254;47.990;-1.608;2022-12-18T13:30:56;6.85;;;5.10;;
49378;SDS011;35254;47.990;-1.608;2022-12-18T13:41:00;6.75;;;4.30;;
49378;SDS011;35254;47.990;-1.608;2022-12-18T13:46:01;5.20;;;4.30;;
49378;SDS011;35254;47.990;-1.608;2022-12-18T13:51:33;6.15;;;4.47;;
49378;SDS011;35254;47.990;-1.608;2022-12-18T13:54:00;5.90;;;4.63;;
49378;SDS011;35254;47.990;-1.608;2022-12-18T13:56:44;5.63;;;4.13;;
49378;SDS011;35254;47.990;-1.608;2022-12-18T14:04:22;6.38;;;4.60;;
49378;SDS011;35254;47.990;-1.608;2022-12-18T14:06:51;6.05;;;4.00;;
49378;SDS011;35254;47.990;-1.608;2022-12-18T14:09:24;4.28;;;3.88;;
49378;SDS011;35254;47.990;-1.608;2022-12-18T14:11:52;6.43;;;4.43;;
49378;SDS011;35254;47.990;-1.608;2022-12-18T14:14:40;3.83;;;3.47;;
49378;SDS011;35254;47.990;-1.608;2022-12-18T14:17:11;6.13;;;3.90;;
49378;SDS011;35254;47.990;-1.608;2022-12-18T14:19:40;7.25;;;5.03;;
49378;SDS011;35254;47.990;-1.608;2022-12-18T14:22:21;5.60;;;3.73;;
49378;SDS011;35254;47.990;-1.608;2022-12-18T14:27:41;5.15;;;4.22;;
49378;SDS011;35254;47.990;-1.608;2022-12-18T14:33:00;5.38;;;4.18;;
49378;SDS011;35254;47.990;-1.608;2022-12-18T14:35:26;6.45;;;4.38;;
49378;SDS011;35254;47.990;-1.608;2022-12-18T14:37:52;6.90;;;4.97;;
49378;SDS011;35254;47.990;-1.608;2022-12-18T14:40:18;5.10;;;4.47;;
49378;SDS011;35254;47.990;-1.608;2022-12-18T14:42:44;5.57;;;4.00;;
49378;SDS011;35254;47.990;-1.608;2022-12-18T14:47:58;8.48;;;4.65;;
49378;SDS011;35254;47.990;-1.608;2022-12-18T14:50:24;5.28;;;4.13;;
49378;SDS011;35254;47.990;-1.608;2022-12-18T14:52:50;5.50;;;4.35;;
49378;SDS011;35254;47.990;-1.608;2022-12-18T14:55:17;4.40;;;3.97;;
49378;SDS011;35254;47.990;-1.608;2022-12-18T14:57:44;7.15;;;4.85;;
49378;SDS011;35254;47.990;-1.608;2022-12-18T15:00:21;5.63;;;4.75;;
49378;SDS011;35254;47.990;-1.608;2022-12-18T15:02:49;8.30;;;4.60;;
49378;SDS011;35254;47.990;-1.608;2022-12-18T15:05:19;5.65;;;4.65;;
49378;SDS011;35254;47.990;-1.608;2022-12-18T15:07:57;7.05;;;5.28;;
49378;SDS011;35254;47.990;-1.608;2022-12-18T15:10:25;4.47;;;4.05;;
49378;SDS011;35254;47.990;-1.608;2022-12-18T15:20:32;6.80;;;4.82;;
49378;SDS011;35254;47.990;-1.608;2022-12-18T15:26:11;7.80;;;4.35;;
49378;SDS011;35254;47.990;-1.608;2022-12-18T15:33:34;5.75;;;4.55;;
49378;SDS011;35254;47.990;-1.608;2022-12-18T15:36:05;5.15;;;4.05;;
49378;SDS011;35254;47.990;-1.608;2022-12-18T15:38:35;5.03;;;4.35;;
49378;SDS011;35254;47.990;-1.608;2022-12-18T15:41:01;4.95;;;4.10;;
49378;SDS011;35254;47.990;-1.608;2022-12-18T15:43:27;4.18;;;3.78;;
49378;SDS011;35254;47.990;-1.608;2022-12-18T15:46:03;5.53;;;3.75;;
49378;SDS011;35254;47.990;-1.608;2022-12-18T15:48:32;6.03;;;3.75;;
49378;SDS011;35254;47.990;-1.608;2022-12-18T15:50:59;5.53;;;4.57;;
49378;SDS011;35254;47.990;-1.608;2022-12-18T15:53:27;6.72;;;4.18;;
49378;SDS011;35254;47.990;-1.608;2022-12-18T15:55:57;5.88;;;4.00;;
49378;SDS011;35254;47.990;-1.608;2022-12-18T15:58:41;5.45;;;3.75;;
49378;SDS011;35254;47.990;-1.608;2022-12-18T16:01:08;4.10;;;3.55;;
49378;SDS011;35254;47.990;-1.608;2022-12-18T16:03:35;5.30;;;3.83;;
49378;SDS011;35254;47.990;-1.608;2022-12-18T16:06:01;6.65;;;4.00;;
49378;SDS011;35254;47.990;-1.608;2022-12-18T16:08:28;3.95;;;3.38;;
49378;SDS011;35254;47.990;-1.608;2022-12-18T16:10:55;13.27;;;3.92;;
49378;SDS011;35254;47.990;-1.608;2022-12-18T16:13:21;6.15;;;4.32;;
49378;SDS011;35254;47.990;-1.608;2022-12-18T16:15:48;6.22;;;4.28;;
49378;SDS011;35254;47.990;-1.608;2022-12-18T16:18:14;5.97;;;4.22;;
49378;SDS011;35254;47.990;-1.608;2022-12-18T16:20:39;5.13;;;4.15;;
49378;SDS011;35254;47.990;-1.608;2022-12-18T16:23:05;5.97;;;3.20;;
49378;SDS011;35254;47.990;-1.608;2022-12-18T16:25:31;6.15;;;3.80;;
49378;SDS011;35254;47.990;-1.608;2022-12-18T16:27:57;6.35;;;4.15;;
49378;SDS011;35254;47.990;-1.608;2022-12-18T16:30:27;5.07;;;4.10;;
49378;SDS011;35254;47.990;-1.608;2022-12-18T16:32:55;4.68;;;3.13;;
49378;SDS011;35254;47.990;-1.608;2022-12-18T16:35:24;4.68;;;3.38;;
49378;SDS011;35254;47.990;-1.608;2022-12-18T16:37:51;6.88;;;3.30;;
49378;SDS011;35254;47.990;-1.608;2022-12-18T16:40:17;6.22;;;3.45;;
49378;SDS011;35254;47.990;-1.608;2022-12-18T16:42:43;3.63;;;3.10;;
49378;SDS011;35254;47.990;-1.608;2022-12-18T16:45:14;5.20;;;2.90;;
49378;SDS011;35254;47.990;-1.608;2022-12-18T16:47:41;4.30;;;3.15;;
49378;SDS011;35254;47.990;-1.608;2022-12-18T16:50:07;3.88;;;2.83;;
49378;SDS011;35254;47.990;-1.608;2022-12-18T16:52:33;8.18;;;3.08;;
49378;SDS011;35254;47.990;-1.608;2022-12-18T16:54:59;6.22;;;3.08;;
49378;SDS011;35254;47.990;-1.608;2022-12-18T16:57:25;4.60;;;3.58;;
49378;SDS011;35254;47.990;-1.608;2022-12-18T16:59:51;7.90;;;4.20;;
49378;SDS011;35254;47.990;-1.608;2022-12-18T17:02:18;5.25;;;4.75;;
49378;SDS011;35254;47.990;-1.608;2022-12-18T17:04:48;9.50;;;3.70;;
49378;SDS011;35254;47.990;-1.608;2022-12-18T17:07:14;4.95;;;2.70;;
49378;SDS011;35254;47.990;-1.608;2022-12-18T17:09:40;4.10;;;2.65;;